KIFP/IFP METAR and TAF weather

Enter ICAO airport designator
Station Type Date Time Source
KIFP METAR 2019/02/20 16:52 UTC NOAA

KIFP 201652Z 19005KT 20SM SCT120 05/M04 A2996


Station Type Date Time Source
KIFP Decoded METAR 2019/02/20 16:52 UTC NOAA

Bullhead City, Laughlin/Bullhead International Airport, AZ, United States (KIFP) 35-09-27N 114-33-34W
Feb 20, 2019 - 11:52 AM EST / 2019.02.20 1652 UTC
Wind: from the S (190 degrees) at 6 MPH (5 KT):0
Visibility: 20 mile(s):0
Sky conditions: partly cloudy
Temperature: 41 F (5 C)
Dew Point: 24 F (-4 C)
Relative Humidity: 52%
Pressure (altimeter): 29.96 in. Hg (1014 hPa)
ob: KIFP 201652Z 19005KT 20SM SCT120 05/M04 A2996
cycle: 17

Station Type Date Time Source
KIFP TAF 2019/02/20 18:22 UTC NOAA

TAF KIFP 201720Z 2018/2118 19007KT P6SM SCT150
FM201900 18014G24KT P6SM BKN150
FM210200 16011KT P6SM VCSH OVC060
FM210800 16009KT P6SM -SHRA BKN030 OVC050


Example: see airport list